createdAt,value
2022-08-21T00:04:56.936Z,37.30
2022-08-21T00:10:17.535Z,37.50
2022-08-21T00:15:37.748Z,37.50
2022-08-21T00:20:57.780Z,37.60
2022-08-21T00:26:18.048Z,37.60
2022-08-21T00:31:38.110Z,37.60
2022-08-21T00:36:58.177Z,37.80
2022-08-21T00:42:18.308Z,37.70
2022-08-21T00:47:38.598Z,37.70
2022-08-21T00:52:59.336Z,37.80
2022-08-21T00:58:19.436Z,37.80
2022-08-21T01:03:40.079Z,37.90
2022-08-21T01:09:06.278Z,37.90
2022-08-21T01:14:26.566Z,38.00
2022-08-21T01:19:46.709Z,38.00
2022-08-21T01:25:06.912Z,38.00
2022-08-21T01:30:26.873Z,38.10
2022-08-21T01:35:47.171Z,38.00
2022-08-21T01:41:07.219Z,38.20
2022-08-21T01:46:27.518Z,38.20
2022-08-21T01:51:47.562Z,38.20
2022-08-21T01:57:07.840Z,38.30
2022-08-21T02:02:28.098Z,38.40
2022-08-21T02:07:48.746Z,38.40
2022-08-21T02:13:08.948Z,38.30
2022-08-21T02:18:33.110Z,38.30
2022-08-21T02:23:53.188Z,38.40
2022-08-21T02:29:13.238Z,38.50
2022-08-21T02:34:33.304Z,38.50
2022-08-21T02:39:53.431Z,38.50
2022-08-21T02:45:13.373Z,38.50
2022-08-21T02:50:33.551Z,38.50
2022-08-21T02:55:53.740Z,38.50
2022-08-21T03:01:14.012Z,38.50
2022-08-21T03:06:33.998Z,38.50
2022-08-21T03:11:54.146Z,38.50
2022-08-21T03:17:14.249Z,38.50
2022-08-21T03:22:34.474Z,38.50
2022-08-21T03:27:58.368Z,38.50
2022-08-21T03:33:20.773Z,38.60
2022-08-21T03:38:44.154Z,38.60
2022-08-21T03:44:04.314Z,38.60
2022-08-21T03:49:24.312Z,38.50
2022-08-21T03:54:44.392Z,38.60
2022-08-21T04:00:04.636Z,38.50
2022-08-21T04:05:24.896Z,38.60
2022-08-21T04:10:45.066Z,38.60
2022-08-21T04:16:05.111Z,38.60
2022-08-21T04:21:26.318Z,38.60
2022-08-21T04:26:46.286Z,38.60
2022-08-21T04:32:06.406Z,38.50
2022-08-21T04:37:26.548Z,38.50
2022-08-21T04:42:46.691Z,39.20
2022-08-21T04:48:10.711Z,38.50
2022-08-21T04:53:34.306Z,38.50
2022-08-21T04:58:54.626Z,38.50
2022-08-21T05:04:14.656Z,38.50
2022-08-21T05:09:35.209Z,38.40
2022-08-21T05:14:55.279Z,38.40
2022-08-21T05:20:15.429Z,38.40
2022-08-21T05:25:35.660Z,38.40
2022-08-21T05:30:55.872Z,38.40
2022-08-21T05:36:15.956Z,38.50
2022-08-21T05:41:36.191Z,38.50
2022-08-21T05:46:56.344Z,38.40
2022-08-21T05:52:16.577Z,38.50
2022-08-21T05:57:36.772Z,38.60
2022-08-21T06:02:57.168Z,38.40
2022-08-21T06:08:17.526Z,38.40
2022-08-21T06:13:37.779Z,38.40
2022-08-21T06:19:02.452Z,38.50
2022-08-21T06:24:23.139Z,38.50
2022-08-21T06:29:44.277Z,38.60
2022-08-21T06:35:04.842Z,38.50
2022-08-21T06:40:25.180Z,38.40
2022-08-21T06:45:45.164Z,38.40
2022-08-21T06:51:05.336Z,38.30
2022-08-21T06:56:25.695Z,38.30
2022-08-21T07:01:45.980Z,38.30
2022-08-21T07:07:05.945Z,38.20
2022-08-21T07:12:25.949Z,38.10
2022-08-21T07:17:46.203Z,38.20
2022-08-21T07:23:06.226Z,38.00
2022-08-21T07:28:26.473Z,38.00
2022-08-21T07:33:46.628Z,38.00
2022-08-21T07:39:06.885Z,37.80
2022-08-21T07:44:27.327Z,37.80
2022-08-21T07:49:47.506Z,37.80
2022-08-21T07:55:08.621Z,37.20
2022-08-21T08:00:28.613Z,37.50
2022-08-21T08:05:48.745Z,37.40
2022-08-21T08:11:08.933Z,37.50
2022-08-21T08:16:29.216Z,37.30
2022-08-21T08:21:49.471Z,37.10
2022-08-21T08:27:09.589Z,37.40
2022-08-21T08:32:30.399Z,37.20
2022-08-21T08:37:52.474Z,37.30
2022-08-21T08:43:14.562Z,37.00
2022-08-21T08:48:35.283Z,36.80
2022-08-21T08:53:55.468Z,36.60
2022-08-21T08:59:15.635Z,36.80
2022-08-21T09:04:35.723Z,36.70
2022-08-21T09:09:56.074Z,36.60
2022-08-21T09:15:16.179Z,36.30
2022-08-21T09:20:36.517Z,36.40
2022-08-21T09:25:56.647Z,36.00
2022-08-21T09:31:17.377Z,35.90
2022-08-21T09:36:37.390Z,36.00
2022-08-21T09:41:57.452Z,35.90
2022-08-21T09:47:18.110Z,35.80
2022-08-21T09:52:38.345Z,35.50
2022-08-21T09:57:58.486Z,35.70
2022-08-21T10:03:18.885Z,35.40
2022-08-21T10:08:39.171Z,35.70
2022-08-21T10:13:59.406Z,35.60
2022-08-21T10:19:19.464Z,35.60
2022-08-21T10:24:39.860Z,35.60
2022-08-21T10:30:00.024Z,35.70
2022-08-21T10:35:20.236Z,35.00
2022-08-21T10:40:40.387Z,35.30
2022-08-21T10:46:00.492Z,35.20
2022-08-21T10:51:20.581Z,35.00
2022-08-21T10:56:49.226Z,35.10
2022-08-21T11:02:09.238Z,35.00
2022-08-21T11:07:29.911Z,34.60
2022-08-21T11:12:54.226Z,34.80
2022-08-21T11:18:16.864Z,34.60
2022-08-21T11:23:37.019Z,34.30
2022-08-21T11:28:57.285Z,34.70
2022-08-21T11:34:17.410Z,34.70
2022-08-21T11:39:37.790Z,34.50
2022-08-21T11:44:57.854Z,35.00
2022-08-21T11:50:34.363Z,34.40
2022-08-21T11:55:55.806Z,34.60
2022-08-21T12:01:15.956Z,34.50
2022-08-21T12:06:36.021Z,34.20
2022-08-21T12:11:56.199Z,34.20
2022-08-21T12:17:20.281Z,34.20
2022-08-21T12:22:41.858Z,34.20
2022-08-21T12:28:02.272Z,34.10
2022-08-21T12:33:22.888Z,33.80
2022-08-21T12:38:43.042Z,33.80
2022-08-21T12:44:03.378Z,33.70
2022-08-21T12:49:26.706Z,33.70
2022-08-21T12:54:47.112Z,33.50
2022-08-21T13:00:07.419Z,33.50
2022-08-21T13:05:27.431Z,33.50
2022-08-21T13:10:47.551Z,33.60
2022-08-21T13:16:07.606Z,33.50
2022-08-21T13:21:28.775Z,33.60
2022-08-21T13:26:48.878Z,33.90
2022-08-21T13:32:09.249Z,33.80
2022-08-21T13:37:29.311Z,33.70
2022-08-21T13:42:49.631Z,33.70
2022-08-21T13:48:10.572Z,33.60
2022-08-21T13:53:30.916Z,33.40
2022-08-21T13:58:50.978Z,33.40
2022-08-21T14:04:11.081Z,33.40
2022-08-21T14:09:31.195Z,33.40
2022-08-21T14:14:51.361Z,35.90
2022-08-21T14:20:11.531Z,35.50
2022-08-21T14:25:31.675Z,34.80
2022-08-21T14:30:53.945Z,35.40
2022-08-21T14:36:13.991Z,36.30
2022-08-21T14:41:33.998Z,36.60
2022-08-21T14:46:56.297Z,36.00
2022-08-21T14:52:16.740Z,36.10
2022-08-21T14:57:36.999Z,35.90
2022-08-21T15:02:57.121Z,35.80
2022-08-21T15:08:17.779Z,35.30
2022-08-21T15:13:37.824Z,34.00
2022-08-21T15:18:57.971Z,33.70
2022-08-21T15:24:18.639Z,34.40
2022-08-21T15:29:38.768Z,34.10
2022-08-21T15:34:58.861Z,33.60
2022-08-21T15:40:18.946Z,34.00
2022-08-21T15:45:38.960Z,33.90
2022-08-21T15:50:59.130Z,34.30
2022-08-21T15:56:19.371Z,33.30
2022-08-21T16:01:44.859Z,32.20
2022-08-21T16:07:09.389Z,31.80
2022-08-21T16:12:29.839Z,32.60
2022-08-21T16:17:49.948Z,32.80
2022-08-21T16:23:09.966Z,32.50
2022-08-21T16:28:30.220Z,32.40
2022-08-21T16:33:50.359Z,32.50
2022-08-21T16:39:13.593Z,32.20
2022-08-21T16:44:33.677Z,33.40
2022-08-21T16:49:54.771Z,34.20
2022-08-21T16:55:14.968Z,34.60
2022-08-21T17:00:35.031Z,34.80
2022-08-21T17:05:55.687Z,34.60
2022-08-21T17:11:32.512Z,34.50
2022-08-21T17:16:55.812Z,34.20
2022-08-21T17:22:15.832Z,33.60
2022-08-21T17:27:35.976Z,33.20
2022-08-21T17:32:56.215Z,33.00
2022-08-21T17:38:16.279Z,32.80
2022-08-21T17:43:36.299Z,33.30
2022-08-21T17:48:56.479Z,33.30
2022-08-21T17:54:16.586Z,33.20
2022-08-21T17:59:36.869Z,33.00
2022-08-21T18:04:56.976Z,33.00
2022-08-21T18:10:17.156Z,33.00
2022-08-21T18:15:37.378Z,33.40
2022-08-21T18:20:57.695Z,33.10
2022-08-21T18:26:17.912Z,33.20
2022-08-21T18:31:38.192Z,33.40
2022-08-21T18:36:58.320Z,33.40
2022-08-21T18:42:18.496Z,33.60
2022-08-21T18:47:38.611Z,33.40
2022-08-21T18:52:58.732Z,33.90
2022-08-21T18:58:18.780Z,33.60
2022-08-21T19:03:38.962Z,33.70
2022-08-21T19:08:59.076Z,33.80
2022-08-21T19:14:19.326Z,33.60
2022-08-21T19:19:42.989Z,33.50
2022-08-21T19:25:03.049Z,33.70
2022-08-21T19:30:23.209Z,33.40
2022-08-21T19:35:46.017Z,33.40
2022-08-21T19:41:11.123Z,33.40
2022-08-21T19:46:31.141Z,33.30
2022-08-21T19:51:51.358Z,33.30
2022-08-21T19:57:11.821Z,33.60
2022-08-21T20:02:31.972Z,33.80
2022-08-21T20:07:52.230Z,33.50
2022-08-21T20:13:13.953Z,33.60
2022-08-21T20:18:34.159Z,33.40
2022-08-21T20:23:55.267Z,33.60
2022-08-21T20:29:15.434Z,33.60
2022-08-21T20:34:36.057Z,33.60
2022-08-21T20:39:56.201Z,33.70
2022-08-21T20:45:17.288Z,33.70
2022-08-21T20:50:38.542Z,33.70
2022-08-21T20:55:58.659Z,33.90
2022-08-21T21:01:21.075Z,33.90
2022-08-21T21:06:41.613Z,34.00
2022-08-21T21:12:01.853Z,34.00
2022-08-21T21:17:28.227Z,34.10
2022-08-21T21:22:48.471Z,34.30
2022-08-21T21:28:12.782Z,34.40
2022-08-21T21:33:33.155Z,34.50
2022-08-21T21:38:53.345Z,34.60
2022-08-21T21:44:13.442Z,34.70
2022-08-21T21:49:33.725Z,34.70
2022-08-21T21:54:53.873Z,34.80
2022-08-21T22:00:14.104Z,34.90
2022-08-21T22:05:34.139Z,35.00
2022-08-21T22:10:54.365Z,35.00
2022-08-21T22:16:14.886Z,35.10
2022-08-21T22:21:35.158Z,35.10
2022-08-21T22:26:55.245Z,35.10
2022-08-21T22:32:15.523Z,35.20
2022-08-21T22:37:36.143Z,35.20
2022-08-21T22:42:56.456Z,35.40
2022-08-21T22:48:22.563Z,35.40
2022-08-21T22:53:43.040Z,35.50
2022-08-21T22:59:03.373Z,35.40
2022-08-21T23:04:23.423Z,35.40
2022-08-21T23:09:43.583Z,35.50
2022-08-21T23:15:03.667Z,35.60
2022-08-21T23:20:23.774Z,35.60
2022-08-21T23:25:44.008Z,35.60
2022-08-21T23:31:05.011Z,35.70
2022-08-21T23:36:25.418Z,35.70
2022-08-21T23:41:46.076Z,35.70
2022-08-21T23:47:11.272Z,35.80
2022-08-21T23:52:32.054Z,35.80
2022-08-21T23:57:52.128Z,35.90
